Terminal Aerodrome Forecast
Issued by NWS Cleveland, OH

Home | Current Version | Previous Version | Text Only | Print | Product List | Glossary On
Versions: 1 2 3 4 5 6 7 8 9 10 11 12 13 14 15 16 17 18 19
000
FTUS41 KCLE 191700
TAFYNG
TAF
KYNG 191740Z 1918/2018 21005KT P6SM SCT045
      TEMPO 1920/1924 BKN045
     FM200200 17004KT P6SM VCSH SCT045 BKN120
      TEMPO 2004/2008 4SM TSRA BR BKN035CB
     FM200800 17004KT 6SM BR VCSH SCT025 BKN035
     FM201000 17004KT 5SM BR SCT025 BKN080
      TEMPO 2010/2014 3SM BR SCT025 BKN080
     FM201400 20006KT 6SM HZ SCT035 BKN120
     FM201600 20006KT P6SM BKN045=

USA.gov is the U.S. government's official web portal to all federal, state and local government web resources and services.